createdAt,value
2022-08-20T00:01:42.343Z,101478.00
2022-08-20T00:04:11.236Z,101480.53
2022-08-20T00:06:40.558Z,101480.31
2022-08-20T00:09:10.384Z,101480.06
2022-08-20T00:11:40.603Z,101481.38
2022-08-20T00:14:08.638Z,101482.25
2022-08-20T00:16:39.173Z,101480.78
2022-08-20T00:19:09.638Z,101482.47
2022-08-20T00:21:38.057Z,101478.59
2022-08-20T00:24:07.100Z,101470.28
2022-08-20T00:26:35.266Z,101478.00
2022-08-20T00:29:09.501Z,101476.69
2022-08-20T00:31:38.976Z,101483.56
2022-08-20T00:34:07.327Z,101488.66
2022-08-20T00:36:35.302Z,101484.41
2022-08-20T00:39:03.201Z,101487.19
2022-08-20T00:41:31.377Z,101487.59
2022-08-20T00:44:09.294Z,101478.00
2022-08-20T00:46:39.544Z,101471.66
2022-08-20T00:49:09.737Z,101479.53
2022-08-20T00:51:41.373Z,101476.75
2022-08-20T00:54:15.288Z,101472.91
2022-08-20T00:56:44.940Z,101476.28
2022-08-20T00:59:19.224Z,101470.75
2022-08-20T01:01:56.276Z,101472.91
2022-08-20T01:04:26.316Z,101474.44
2022-08-20T01:06:54.908Z,101474.22
2022-08-20T01:09:33.537Z,101470.59
2022-08-20T01:12:12.383Z,101473.63
2022-08-20T01:14:45.569Z,101475.53
2022-08-20T01:17:18.602Z,101471.75
2022-08-20T01:19:52.585Z,101467.78
2022-08-20T01:22:43.914Z,101477.81
2022-08-20T01:25:18.217Z,101473.72
2022-08-20T01:27:53.222Z,101473.72
2022-08-20T01:30:25.989Z,101480.81
2022-08-20T01:32:54.097Z,101479.34
2022-08-20T01:35:24.217Z,101489.41
2022-08-20T01:37:52.277Z,101482.88
2022-08-20T01:40:34.581Z,101481.97
2022-08-20T01:43:09.100Z,101479.91
2022-08-20T01:45:40.172Z,101480.72
2022-08-20T01:48:09.635Z,101471.13
2022-08-20T01:50:43.215Z,101483.50
2022-08-20T01:53:19.282Z,101477.75
2022-08-20T01:55:47.282Z,101475.81
2022-08-20T01:58:17.021Z,101487.13
2022-08-20T02:00:45.120Z,101485.22
2022-08-20T02:03:13.036Z,101488.69
2022-08-20T02:05:41.059Z,101487.41
2022-08-20T02:08:09.073Z,101485.72
2022-08-20T02:10:37.425Z,101493.81
2022-08-20T02:13:08.622Z,101492.31
2022-08-20T02:15:39.913Z,101494.94
2022-08-20T02:18:15.444Z,101485.16
2022-08-20T02:20:44.489Z,101481.97
2022-08-20T02:23:13.144Z,101483.66
2022-08-20T02:25:43.610Z,101493.88
2022-08-20T02:28:14.440Z,101490.94
2022-08-20T02:30:46.951Z,101487.97
2022-08-20T02:33:17.243Z,101499.25
2022-08-20T02:35:47.900Z,101512.91
2022-08-20T02:38:16.624Z,101508.03
2022-08-20T02:40:46.313Z,101508.69
2022-08-20T02:43:14.491Z,101504.41
2022-08-20T02:45:44.690Z,101509.53
2022-08-20T02:48:20.888Z,101508.72
2022-08-20T02:50:51.919Z,101505.31
2022-08-20T02:53:19.855Z,101505.09
2022-08-20T02:55:47.778Z,101498.69
2022-08-20T02:58:16.557Z,101507.25
2022-08-20T03:00:46.822Z,101513.84
2022-08-20T03:03:20.279Z,101514.28
2022-08-20T03:05:48.117Z,101511.00
2022-08-20T03:08:17.764Z,101510.03
2022-08-20T03:10:47.732Z,101505.38
2022-08-20T03:13:17.034Z,101519.69
2022-08-20T03:15:48.418Z,101516.53
2022-08-20T03:18:18.344Z,101523.13
2022-08-20T03:20:46.806Z,101518.00
2022-08-20T03:23:22.226Z,101520.75
2022-08-20T03:25:50.861Z,101517.75
2022-08-20T03:28:19.878Z,101516.28
2022-08-20T03:30:50.426Z,101518.19
2022-08-20T03:33:20.195Z,101514.56
2022-08-20T03:35:48.788Z,101516.72
2022-08-20T03:38:32.216Z,101520.34
2022-08-20T03:41:00.819Z,101512.03
2022-08-20T03:43:29.407Z,101519.28
2022-08-20T03:45:58.850Z,101520.56
2022-08-20T03:48:26.902Z,101530.59
2022-08-20T03:50:55.979Z,101533.19
2022-08-20T03:53:24.281Z,101534.25
2022-08-20T03:55:58.235Z,101529.56
2022-08-20T03:58:34.836Z,101534.47
2022-08-20T04:01:07.237Z,101543.00
2022-08-20T04:03:36.351Z,101528.91
2022-08-20T04:06:05.060Z,101532.75
2022-08-20T04:08:33.136Z,101534.66
2022-08-20T04:11:01.191Z,101532.09
2022-08-20T04:13:30.745Z,101532.09
2022-08-20T04:16:02.830Z,101532.97
2022-08-20T04:18:34.304Z,101539.38
2022-08-20T04:21:02.325Z,101536.38
2022-08-20T04:23:32.376Z,101529.78
2022-08-20T04:26:00.907Z,101539.13
2022-08-20T04:28:30.799Z,101544.94
2022-08-20T04:31:02.542Z,101542.78
2022-08-20T04:33:34.186Z,101543.44
2022-08-20T04:36:06.155Z,101551.75
2022-08-20T04:38:49.542Z,101552.81
2022-08-20T04:41:23.266Z,101551.44
2022-08-20T04:43:54.360Z,101567.72
2022-08-20T04:46:26.637Z,101567.97
2022-08-20T04:48:58.878Z,101558.56
2022-08-20T04:51:28.997Z,101557.53
2022-08-20T04:54:03.065Z,101555.38
2022-08-20T04:56:39.496Z,101554.31
2022-08-20T04:59:10.014Z,101568.31
2022-08-20T05:01:38.818Z,101558.44
2022-08-20T05:04:11.524Z,101559.84
2022-08-20T05:06:42.591Z,101555.97
2022-08-20T05:09:14.296Z,101560.59
2022-08-20T05:11:48.778Z,101564.78
2022-08-20T05:14:18.095Z,101562.38
2022-08-20T05:16:51.509Z,101556.78
2022-08-20T05:19:30.205Z,101566.31
2022-08-20T05:22:01.257Z,101558.84
2022-08-20T05:24:33.025Z,101567.84
2022-08-20T05:27:03.925Z,101576.09
2022-08-20T05:29:36.069Z,101567.88
2022-08-20T05:32:07.275Z,101581.53
2022-08-20T05:34:39.929Z,101582.81
2022-08-20T05:37:12.793Z,101584.28
2022-08-20T05:39:42.871Z,101582.50
2022-08-20T05:42:11.442Z,101584.63
2022-08-20T05:44:40.797Z,101589.09
2022-08-20T05:47:11.299Z,101592.50
2022-08-20T05:49:42.956Z,101585.03
2022-08-20T05:52:13.766Z,101586.34
2022-08-20T05:54:43.318Z,101590.38
2022-08-20T05:57:14.667Z,101585.06
2022-08-20T05:59:44.406Z,101584.00
2022-08-20T06:02:27.320Z,101591.78
2022-08-20T06:04:59.660Z,101594.34
2022-08-20T06:07:30.504Z,101601.38
2022-08-20T06:10:02.504Z,101599.41
2022-08-20T06:12:33.111Z,101600.66
2022-08-20T06:15:01.736Z,101609.16
2022-08-20T06:17:39.298Z,101602.31
2022-08-20T06:20:10.853Z,101602.72
2022-08-20T06:22:39.234Z,101602.78
2022-08-20T06:25:08.601Z,101606.25
2022-08-20T06:27:40.362Z,101595.59
2022-08-20T06:30:10.450Z,101592.91
2022-08-20T06:32:38.550Z,101593.13
2022-08-20T06:35:10.941Z,101603.94
2022-08-20T06:37:40.466Z,101598.84
2022-08-20T06:40:12.098Z,101599.28
2022-08-20T06:42:47.805Z,101583.34
2022-08-20T06:45:18.920Z,101595.22
2022-08-20T06:47:48.088Z,101598.63
2022-08-20T06:50:20.191Z,101596.75
2022-08-20T06:52:52.401Z,101593.75
2022-08-20T06:55:32.865Z,101586.25
2022-08-20T06:58:02.537Z,101600.50
2022-08-20T07:00:31.729Z,101597.28
2022-08-20T07:03:01.135Z,101596.03
2022-08-20T07:05:34.070Z,101596.47
2022-08-20T07:08:02.056Z,101604.00
2022-08-20T07:10:30.837Z,101605.91
2022-08-20T07:13:01.550Z,101607.63
2022-08-20T07:15:31.414Z,101605.91
2022-08-20T07:18:06.473Z,101606.41
2022-08-20T07:20:41.329Z,101610.03
2022-08-20T07:23:11.981Z,101608.56
2022-08-20T07:25:41.542Z,101605.53
2022-08-20T07:28:15.291Z,101615.75
2022-08-20T07:31:12.050Z,101620.44
2022-08-20T07:33:41.627Z,101621.03
2022-08-20T07:36:11.785Z,101623.41
2022-08-20T07:38:39.997Z,101624.97
2022-08-20T07:41:14.828Z,101621.44
2022-08-20T07:43:45.478Z,101631.03
2022-08-20T07:46:15.522Z,101633.16
2022-08-20T07:48:46.791Z,101629.56
2022-08-20T07:51:18.655Z,101640.03
2022-08-20T07:53:48.535Z,101641.50
2022-08-20T07:56:21.456Z,101638.31
2022-08-20T07:58:52.576Z,101641.50
2022-08-20T08:01:23.023Z,101638.44
2022-08-20T08:03:51.548Z,101639.09
2022-08-20T08:06:29.047Z,101642.69
2022-08-20T08:09:03.041Z,101646.06
2022-08-20T08:11:38.038Z,101643.28
2022-08-20T08:14:09.549Z,101643.59
2022-08-20T08:16:39.370Z,101642.72
2022-08-20T08:19:12.074Z,101638.63
2022-08-20T08:21:42.538Z,101648.38
2022-08-20T08:24:12.683Z,101638.59
2022-08-20T08:26:43.977Z,101637.59
2022-08-20T08:29:13.593Z,101635.22
2022-08-20T08:31:42.469Z,101622.91
2022-08-20T08:34:12.529Z,101632.91
2022-08-20T08:36:44.411Z,101628.19
2022-08-20T08:39:14.590Z,101636.66
2022-08-20T08:41:50.044Z,101633.41
2022-08-20T08:44:23.485Z,101639.53
2022-08-20T08:46:54.220Z,101639.47
2022-08-20T08:49:33.896Z,101639.19
2022-08-20T08:52:15.219Z,101643.00
2022-08-20T08:54:50.294Z,101645.06
2022-08-20T08:57:21.378Z,101644.66
2022-08-20T09:00:03.856Z,101642.47
2022-08-20T09:02:35.465Z,101645.00
2022-08-20T09:05:15.217Z,101644.00
2022-08-20T09:07:51.723Z,101644.81
2022-08-20T09:10:23.670Z,101649.53
2022-08-20T09:12:55.979Z,101660.59
2022-08-20T09:15:26.431Z,101648.97
2022-08-20T09:17:58.525Z,101660.22
2022-08-20T09:20:30.193Z,101650.28
2022-08-20T09:23:01.189Z,101658.94
2022-08-20T09:25:31.087Z,101662.13
2022-08-20T09:28:00.339Z,101664.03
2022-08-20T09:30:31.162Z,101666.41
2022-08-20T09:33:00.732Z,101668.34
2022-08-20T09:35:29.716Z,101672.19
2022-08-20T09:37:59.549Z,101663.41
2022-08-20T09:40:29.744Z,101659.97
2022-08-20T09:42:59.230Z,101660.63
2022-08-20T09:45:28.048Z,101659.19
2022-08-20T09:47:58.160Z,101664.84
2022-08-20T09:50:30.756Z,101666.16
2022-08-20T09:53:03.315Z,101667.38
2022-08-20T09:55:36.226Z,101663.19
2022-08-20T09:58:11.537Z,101663.78
2022-08-20T10:00:42.998Z,101664.16
2022-08-20T10:03:12.187Z,101665.19
2022-08-20T10:05:41.602Z,101664.13
2022-08-20T10:08:13.259Z,101661.03
2022-08-20T10:10:44.111Z,101662.03
2022-08-20T10:13:15.483Z,101666.22
2022-08-20T10:15:45.462Z,101666.63
2022-08-20T10:18:15.131Z,101662.31
2022-08-20T10:20:43.943Z,101665.06
2022-08-20T10:23:14.101Z,101661.28
2022-08-20T10:25:44.792Z,101664.00
2022-08-20T10:28:16.270Z,101669.09
2022-08-20T10:30:48.448Z,101662.47
2022-08-20T10:33:20.558Z,101665.38
2022-08-20T10:35:49.236Z,101663.78
2022-08-20T10:38:22.067Z,101671.00
2022-08-20T10:40:53.058Z,101666.72
2022-08-20T10:43:22.972Z,101672.22
2022-08-20T10:45:53.129Z,101679.34
2022-08-20T10:48:23.318Z,101680.16
2022-08-20T10:50:54.603Z,101681.38
2022-08-20T10:53:23.375Z,101679.38
2022-08-20T10:55:54.379Z,101680.41
2022-08-20T10:58:24.143Z,101684.50
2022-08-20T11:00:56.468Z,101672.34
2022-08-20T11:03:27.689Z,101671.41
2022-08-20T11:05:56.134Z,101680.81
2022-08-20T11:08:33.637Z,101675.25
2022-08-20T11:11:05.509Z,101681.41
2022-08-20T11:13:35.298Z,101683.97
2022-08-20T11:16:05.181Z,101675.41
2022-08-20T11:18:33.661Z,101680.69
2022-08-20T11:21:02.142Z,101670.19
2022-08-20T11:23:30.530Z,101679.91
2022-08-20T11:25:59.429Z,101684.13
2022-08-20T11:28:32.264Z,101684.94
2022-08-20T11:31:02.688Z,101673.59
2022-08-20T11:33:32.006Z,101679.84
2022-08-20T11:36:00.980Z,101674.63
2022-08-20T11:38:30.912Z,101679.53
2022-08-20T11:41:00.342Z,101668.66
2022-08-20T11:43:31.922Z,101676.06
2022-08-20T11:46:00.419Z,101675.47
2022-08-20T11:48:30.187Z,101675.63
2022-08-20T11:50:59.231Z,101667.09
2022-08-20T11:53:27.385Z,101660.66
2022-08-20T11:55:57.559Z,101668.34
2022-08-20T11:58:27.633Z,101664.25
2022-08-20T12:00:57.481Z,101662.00
2022-08-20T12:03:25.730Z,101669.41
2022-08-20T12:05:57.096Z,101668.41
2022-08-20T12:08:27.947Z,101670.56
2022-08-20T12:11:00.369Z,101664.41
2022-08-20T12:13:48.588Z,101670.97
2022-08-20T12:16:20.313Z,101667.22
2022-08-20T12:18:49.373Z,101675.03
2022-08-20T12:21:17.963Z,101674.81
2022-08-20T12:23:46.629Z,101676.19
2022-08-20T12:26:16.669Z,101665.13
2022-08-20T12:28:45.027Z,101670.91
2022-08-20T12:31:13.278Z,101671.78
2022-08-20T12:33:43.145Z,101670.75
2022-08-20T12:36:11.437Z,101666.00
2022-08-20T12:38:39.691Z,101661.50
2022-08-20T12:41:08.307Z,101657.31
2022-08-20T12:43:39.994Z,101655.47
2022-08-20T12:46:10.338Z,101651.34
2022-08-20T12:48:40.963Z,101667.22
2022-08-20T12:51:12.217Z,101681.41
2022-08-20T12:53:41.306Z,101664.59
2022-08-20T12:56:10.019Z,101673.13
2022-08-20T12:58:40.720Z,101666.38
2022-08-20T13:01:10.399Z,101676.91
2022-08-20T13:03:45.118Z,101667.44
2022-08-20T13:06:14.659Z,101667.34
2022-08-20T13:08:42.992Z,101663.69
2022-08-20T13:11:11.024Z,101665.72
2022-08-20T13:13:39.495Z,101663.00
2022-08-20T13:16:10.179Z,101654.38
2022-08-20T13:18:40.447Z,101664.19
2022-08-20T13:21:08.780Z,101660.94
2022-08-20T13:23:38.960Z,101654.06
2022-08-20T13:26:08.505Z,101649.84
2022-08-20T13:28:37.535Z,101653.09
2022-08-20T13:31:06.229Z,101659.78
2022-08-20T13:33:35.647Z,101657.59
2022-08-20T13:36:04.219Z,101660.81
2022-08-20T13:38:33.445Z,101655.34
2022-08-20T13:41:04.077Z,101656.66
2022-08-20T13:43:34.357Z,101652.78
2022-08-20T13:46:03.292Z,101660.19
2022-08-20T13:48:31.401Z,101650.03
2022-08-20T13:50:59.906Z,101654.88
2022-08-20T13:53:27.932Z,101656.09
2022-08-20T13:55:56.274Z,101651.91
2022-08-20T13:58:26.202Z,101649.88
2022-08-20T14:00:54.798Z,101646.97
2022-08-20T14:03:25.313Z,101640.84
2022-08-20T14:05:54.756Z,101639.63
2022-08-20T14:08:26.324Z,101635.00
2022-08-20T14:10:55.638Z,101639.13
2022-08-20T14:13:28.248Z,101637.34
2022-08-20T14:15:57.101Z,101635.66
2022-08-20T14:18:25.673Z,101644.34
2022-08-20T14:20:54.910Z,101638.16
2022-08-20T14:23:25.127Z,101638.72
2022-08-20T14:25:54.185Z,101640.63
2022-08-20T14:28:28.087Z,101631.47
2022-08-20T14:30:57.006Z,101629.03
2022-08-20T14:33:25.879Z,101633.28
2022-08-20T14:35:54.644Z,101636.97
2022-08-20T14:38:25.325Z,101646.44
2022-08-20T14:40:53.889Z,101645.09
2022-08-20T14:43:23.799Z,101635.75
2022-08-20T14:45:53.825Z,101634.72
2022-08-20T14:48:26.101Z,101633.66
2022-08-20T14:50:56.170Z,101627.22
2022-08-20T14:53:25.521Z,101626.88
2022-08-20T14:55:53.643Z,101629.38
2022-08-20T14:58:23.744Z,101631.78
2022-08-20T15:00:56.671Z,101632.31
2022-08-20T15:03:30.971Z,101637.09
2022-08-20T15:06:00.891Z,101630.56
2022-08-20T15:08:30.528Z,101646.28
2022-08-20T15:10:59.437Z,101640.47
2022-08-20T15:13:27.771Z,101645.19
2022-08-20T15:15:57.263Z,101646.03
2022-08-20T15:18:25.354Z,101644.56
2022-08-20T15:20:54.042Z,101645.41
2022-08-20T15:23:22.646Z,101645.78
2022-08-20T15:25:50.793Z,101634.03
2022-08-20T15:28:19.024Z,101641.78
2022-08-20T15:30:47.136Z,101639.25
2022-08-20T15:33:16.642Z,101644.72
2022-08-20T15:35:45.062Z,101640.47
2022-08-20T15:38:13.517Z,101641.91
2022-08-20T15:40:41.871Z,101642.66
2022-08-20T15:43:09.956Z,101634.31
2022-08-20T15:45:38.195Z,101634.16
2022-08-20T15:48:13.171Z,101634.16
2022-08-20T15:51:12.352Z,101631.75
2022-08-20T15:53:53.514Z,101626.75
2022-08-20T15:56:42.085Z,101631.13
2022-08-20T15:59:21.939Z,101621.31
2022-08-20T16:02:00.412Z,101625.59
2022-08-20T16:05:07.330Z,101632.13
2022-08-20T16:07:47.123Z,101635.75
2022-08-20T16:10:21.148Z,101629.59
2022-08-20T16:12:52.785Z,101637.22
2022-08-20T16:15:26.429Z,101634.69
2022-08-20T16:18:07.039Z,101637.91
2022-08-20T16:20:43.882Z,101630.84
2022-08-20T16:23:22.658Z,101633.03
2022-08-20T16:26:03.341Z,101633.03
2022-08-20T16:28:42.675Z,101639.09
2022-08-20T16:31:16.186Z,101636.81
2022-08-20T16:33:53.332Z,101629.63
2022-08-20T16:36:29.686Z,101635.00
2022-08-20T16:39:04.871Z,101636.28
2022-08-20T16:41:40.609Z,101635.78
2022-08-20T16:44:17.739Z,101643.16
2022-08-20T16:46:54.987Z,101641.94
2022-08-20T16:49:32.445Z,101644.25
2022-08-20T16:52:01.610Z,101648.13
2022-08-20T16:54:31.409Z,101648.34
2022-08-20T16:57:04.136Z,101649.53
2022-08-20T16:59:36.600Z,101654.25
2022-08-20T17:02:12.474Z,101654.38
2022-08-20T17:04:57.844Z,101653.78
2022-08-20T17:07:43.470Z,101657.03
2022-08-20T17:10:21.679Z,101648.94
2022-08-20T17:13:01.149Z,101654.81
2022-08-20T17:15:34.602Z,101656.41
2022-08-20T17:18:20.770Z,101652.28
2022-08-20T17:20:49.173Z,101649.91
2022-08-20T17:23:20.158Z,101650.28
2022-08-20T17:25:58.794Z,101650.94
2022-08-20T17:28:35.254Z,101650.47
2022-08-20T17:31:03.552Z,101655.66
2022-08-20T17:33:35.218Z,101651.44
2022-08-20T17:36:08.072Z,101655.75
2022-08-20T17:38:41.008Z,101647.41
2022-08-20T17:41:17.383Z,101667.06
2022-08-20T17:43:46.213Z,101654.53
2022-08-20T17:46:17.370Z,101660.34
2022-08-20T17:48:48.419Z,101655.94
2022-08-20T17:51:19.298Z,101651.06
2022-08-20T17:53:52.131Z,101663.22
2022-08-20T17:56:25.223Z,101658.94
2022-08-20T17:59:03.094Z,101654.63
2022-08-20T18:01:31.761Z,101655.34
2022-08-20T18:04:00.040Z,101657.41
2022-08-20T18:06:33.739Z,101663.81
2022-08-20T18:09:05.638Z,101663.50
2022-08-20T18:11:41.525Z,101665.91
2022-08-20T18:14:25.585Z,101663.88
2022-08-20T18:17:09.821Z,101667.66
2022-08-20T18:20:07.110Z,101667.50
2022-08-20T18:22:44.555Z,101666.00
2022-08-20T18:25:24.463Z,101671.22
2022-08-20T18:27:58.969Z,101675.59
2022-08-20T18:30:28.013Z,101683.31
2022-08-20T18:33:04.676Z,101678.69
2022-08-20T18:35:37.363Z,101680.47
2022-08-20T18:38:28.892Z,101674.19
2022-08-20T18:41:08.362Z,101682.63
2022-08-20T18:43:38.156Z,101686.19
2022-08-20T18:46:15.895Z,101685.38
2022-08-20T18:48:55.823Z,101684.13
2022-08-20T18:51:36.388Z,101688.22
2022-08-20T18:54:05.998Z,101691.63
2022-08-20T18:56:43.223Z,101687.75
2022-08-20T18:59:16.519Z,101692.22
2022-08-20T19:01:44.648Z,101688.75
2022-08-20T19:04:27.196Z,101692.38
2022-08-20T19:06:59.948Z,101696.16
2022-08-20T19:09:44.110Z,101692.47
2022-08-20T19:12:38.765Z,101694.63
2022-08-20T19:15:13.137Z,101697.19
2022-08-20T19:17:59.346Z,101690.75
2022-08-20T19:20:31.314Z,101688.88
2022-08-20T19:23:05.996Z,101688.63
2022-08-20T19:25:38.481Z,101701.03
2022-08-20T19:28:18.539Z,101698.16
2022-08-20T19:30:48.489Z,101701.13
2022-08-20T19:33:26.459Z,101705.13
2022-08-20T19:36:28.214Z,101702.66
2022-08-20T19:38:59.084Z,101704.84
2022-08-20T19:41:33.645Z,101699.66
2022-08-20T19:44:03.917Z,101705.22
2022-08-20T19:46:39.565Z,101699.78
2022-08-20T19:49:21.163Z,101700.78
2022-08-20T19:52:02.732Z,101703.47
2022-08-20T19:54:31.382Z,101702.66
2022-08-20T19:57:07.467Z,101702.03
2022-08-20T19:59:36.608Z,101695.38
2022-08-20T20:02:20.642Z,101689.13
2022-08-20T20:04:54.877Z,101685.78
2022-08-20T20:07:28.638Z,101685.19
2022-08-20T20:09:59.433Z,101690.50
2022-08-20T20:12:29.800Z,101692.34
2022-08-20T20:15:00.319Z,101683.19
2022-08-20T20:17:35.416Z,101682.72
2022-08-20T20:20:23.192Z,101686.84
2022-08-20T20:22:56.767Z,101683.94
2022-08-20T20:25:42.713Z,101676.66
2022-08-20T20:28:18.971Z,101684.16
2022-08-20T20:30:48.449Z,101681.47
2022-08-20T20:33:21.996Z,101684.94
2022-08-20T20:36:04.273Z,101687.81
2022-08-20T20:38:34.260Z,101688.06
2022-08-20T20:41:05.486Z,101688.91
2022-08-20T20:43:38.459Z,101685.03
2022-08-20T20:46:15.885Z,101683.56
2022-08-20T20:48:50.429Z,101684.16
2022-08-20T20:51:31.036Z,101686.13
2022-08-20T20:54:03.176Z,101683.78
2022-08-20T20:56:36.607Z,101682.59
2022-08-20T20:59:09.504Z,101682.25
2022-08-20T21:01:49.278Z,101672.78
2022-08-20T21:04:26.130Z,101666.78
2022-08-20T21:07:00.679Z,101660.53
2022-08-20T21:09:30.483Z,101670.34
2022-08-20T21:12:00.047Z,101669.50
2022-08-20T21:14:29.155Z,101670.34
2022-08-20T21:17:00.762Z,101662.63
2022-08-20T21:19:31.477Z,101664.19
2022-08-20T21:22:00.228Z,101662.09
2022-08-20T21:24:30.587Z,101661.06
2022-08-20T21:27:01.735Z,101667.56
2022-08-20T21:29:33.013Z,101667.31
2022-08-20T21:32:01.601Z,101668.16
2022-08-20T21:34:32.907Z,101664.91
2022-08-20T21:37:02.996Z,101669.88
2022-08-20T21:39:31.771Z,101660.06
2022-08-20T21:42:03.131Z,101664.59
2022-08-20T21:44:35.674Z,101667.38
2022-08-20T21:47:05.349Z,101662.75
2022-08-20T21:49:36.563Z,101661.31
2022-08-20T21:52:05.595Z,101659.84
2022-08-20T21:54:33.807Z,101660.44
2022-08-20T21:57:05.273Z,101658.28
2022-08-20T21:59:38.069Z,101658.06
2022-08-20T22:02:08.414Z,101650.53
2022-08-20T22:04:40.369Z,101646.28
2022-08-20T22:07:12.294Z,101649.41
2022-08-20T22:09:41.610Z,101651.09
2022-08-20T22:12:20.793Z,101644.69
2022-08-20T22:14:51.279Z,101641.06
2022-08-20T22:17:21.010Z,101639.91
2022-08-20T22:19:51.878Z,101649.78
2022-08-20T22:22:23.670Z,101644.06
2022-08-20T22:24:53.079Z,101640.66
2022-08-20T22:27:22.642Z,101643.28
2022-08-20T22:29:54.203Z,101633.72
2022-08-20T22:32:33.295Z,101636.25
2022-08-20T22:35:16.031Z,101638.34
2022-08-20T22:37:44.209Z,101633.72
2022-08-20T22:40:17.047Z,101634.19
2022-08-20T22:42:47.809Z,101631.22
2022-08-20T22:45:18.928Z,101637.94
2022-08-20T22:47:49.797Z,101639.56
2022-08-20T22:50:22.265Z,101634.78
2022-08-20T22:52:52.423Z,101638.19
2022-08-20T22:55:22.813Z,101641.28
2022-08-20T22:57:51.342Z,101642.63
2022-08-20T23:00:20.090Z,101652.34
2022-08-20T23:02:55.104Z,101646.44
2022-08-20T23:05:28.074Z,101639.03
2022-08-20T23:08:00.146Z,101635.06
2022-08-20T23:10:32.517Z,101638.56
2022-08-20T23:13:01.076Z,101632.91
2022-08-20T23:15:31.883Z,101635.31
2022-08-20T23:18:03.430Z,101635.38
2022-08-20T23:20:35.646Z,101639.06
2022-08-20T23:23:06.214Z,101639.28
2022-08-20T23:25:35.080Z,101634.19
2022-08-20T23:28:03.431Z,101635.25
2022-08-20T23:30:33.840Z,101634.22
2022-08-20T23:33:03.290Z,101635.97
2022-08-20T23:35:35.588Z,101635.78
2022-08-20T23:38:05.229Z,101635.56
2022-08-20T23:40:35.760Z,101631.16
2022-08-20T23:43:05.916Z,101631.59
2022-08-20T23:45:39.683Z,101629.06
2022-08-20T23:48:11.402Z,101629.31
2022-08-20T23:50:43.243Z,101628.69
2022-08-20T23:53:12.053Z,101630.00
2022-08-20T23:55:40.904Z,101633.66
2022-08-20T23:58:10.875Z,101625.53
